createdAt,value
2023-04-20T00:03:14.057Z,8.40
2023-04-20T00:06:55.832Z,9.70
2023-04-20T00:10:24.954Z,8.40
2023-04-20T00:14:12.615Z,8.10
2023-04-20T00:18:01.803Z,8.10
2023-04-20T00:21:50.892Z,7.40
2023-04-20T00:25:03.825Z,9.10
2023-04-20T00:28:42.963Z,8.30
2023-04-20T00:32:32.170Z,8.70
2023-04-20T00:36:21.314Z,8.90
2023-04-20T00:39:31.354Z,8.50
2023-04-20T00:43:20.649Z,10.10
2023-04-20T00:47:00.582Z,11.50
2023-04-20T00:50:32.040Z,10.20
2023-04-20T00:54:08.920Z,9.70
2023-04-20T00:57:41.069Z,10.60
2023-04-20T01:01:19.329Z,10.70
2023-04-20T01:04:59.258Z,10.90
2023-04-20T01:08:25.903Z,11.30
2023-04-20T01:12:04.942Z,11.60
2023-04-20T01:15:26.982Z,11.90
2023-04-20T01:19:04.359Z,13.20
2023-04-20T01:22:58.660Z,11.50
2023-04-20T01:26:06.596Z,10.80
2023-04-20T01:29:55.693Z,12.10
2023-04-20T01:33:24.427Z,13.20
2023-04-20T01:37:02.457Z,11.70
2023-04-20T01:40:27.343Z,13.20
2023-04-20T01:44:09.078Z,13.20
2023-04-20T01:47:46.733Z,13.80
2023-04-20T01:51:16.301Z,13.70
2023-04-20T01:54:58.218Z,14.70
2023-04-20T01:58:29.603Z,15.10
2023-04-20T02:02:03.977Z,13.80
2023-04-20T02:05:28.511Z,14.60
2023-04-20T02:08:52.702Z,15.30
2023-04-20T02:12:09.711Z,15.30
2023-04-20T02:15:38.687Z,15.00
2023-04-20T02:19:06.579Z,15.80
2023-04-20T02:26:13.275Z,14.90
2023-04-20T02:29:45.085Z,16.40
2023-04-20T02:32:49.913Z,16.50
2023-04-20T02:36:14.953Z,16.60
2023-04-20T02:39:28.768Z,16.20
2023-04-20T02:46:09.766Z,16.00
2023-04-20T02:49:34.629Z,17.10
2023-04-20T02:53:10.473Z,18.10
2023-04-20T02:56:41.519Z,17.80
2023-04-20T03:00:24.251Z,17.20
2023-04-20T03:04:04.323Z,17.60
2023-04-20T03:07:38.825Z,17.50
2023-04-20T03:11:19.554Z,17.40
2023-04-20T03:14:49.310Z,16.30
2023-04-20T03:21:59.082Z,18.10
2023-04-20T03:25:14.558Z,18.60
2023-04-20T03:28:56.982Z,18.70
2023-04-20T03:32:08.529Z,18.80
2023-04-20T03:35:44.317Z,19.10
2023-04-20T03:39:34.629Z,18.10
2023-04-20T03:43:16.918Z,19.10
2023-04-20T03:46:50.328Z,19.50
2023-04-20T03:50:19.423Z,19.80
2023-04-20T03:53:35.216Z,20.20
2023-04-20T03:57:15.391Z,19.50
2023-04-20T04:00:24.193Z,19.30
2023-04-20T04:03:31.055Z,18.70
2023-04-20T04:06:22.296Z,18.70
2023-04-20T04:09:36.239Z,20.80
2023-04-20T04:12:59.497Z,20.00
2023-04-20T04:15:57.174Z,19.10
2023-04-20T04:18:32.467Z,19.60
2023-04-20T04:21:06.922Z,20.70
2023-04-20T04:24:04.988Z,20.00
2023-04-20T04:27:05.503Z,19.50
2023-04-20T04:29:45.697Z,19.60
2023-04-20T04:32:26.464Z,21.30
2023-04-20T04:35:26.345Z,19.60
2023-04-20T04:38:33.662Z,17.40
2023-04-20T04:41:49.517Z,18.80
2023-04-20T04:44:39.644Z,20.00
2023-04-20T04:47:14.552Z,19.60
2023-04-20T04:49:54.268Z,17.70
2023-04-20T04:52:37.939Z,18.30
2023-04-20T04:55:48.011Z,17.60
2023-04-20T04:58:31.317Z,19.10
2023-04-20T05:01:27.789Z,17.90
2023-04-20T05:04:34.625Z,18.50
2023-04-20T05:07:21.454Z,18.80
2023-04-20T05:10:29.145Z,19.30
2023-04-20T05:13:30.704Z,19.10
2023-04-20T05:16:30.239Z,19.00
2023-04-20T05:19:22.450Z,19.10
2023-04-20T05:22:54.297Z,19.30
2023-04-20T05:26:06.542Z,17.60
2023-04-20T05:28:43.098Z,19.50
2023-04-20T05:31:45.721Z,20.10
2023-04-20T05:34:26.111Z,18.90
2023-04-20T05:37:13.523Z,19.10
2023-04-20T05:39:54.917Z,20.90
2023-04-20T05:42:52.580Z,21.00
2023-04-20T05:45:29.940Z,21.10
2023-04-20T05:48:33.982Z,20.90
2023-04-20T05:51:34.505Z,21.50
2023-04-20T05:54:28.496Z,22.30
2023-04-20T05:57:05.673Z,22.20
2023-04-20T05:59:56.264Z,21.70
2023-04-20T06:02:35.853Z,21.40
2023-04-20T06:05:34.398Z,22.80
2023-04-20T06:08:50.972Z,23.90
2023-04-20T06:11:36.279Z,26.80
2023-04-20T06:14:18.272Z,25.20
2023-04-20T06:17:21.301Z,25.60
2023-04-20T06:20:23.141Z,23.40
2023-04-20T06:23:28.578Z,22.80
2023-04-20T06:26:25.518Z,22.80
2023-04-20T06:29:04.575Z,24.00
2023-04-20T06:31:58.406Z,24.40
2023-04-20T06:34:51.284Z,25.30
2023-04-20T06:37:38.991Z,25.90
2023-04-20T06:40:43.240Z,27.10
2023-04-20T06:43:50.093Z,30.30
2023-04-20T06:46:36.470Z,28.20
2023-04-20T06:49:16.645Z,27.70
2023-04-20T06:52:34.184Z,29.80
2023-04-20T06:55:49.256Z,30.30
2023-04-20T06:58:25.809Z,31.20
2023-04-20T07:01:03.504Z,30.10
2023-04-20T07:06:43.267Z,29.80
2023-04-20T07:09:23.425Z,30.30
2023-04-20T07:14:43.220Z,31.30
2023-04-20T07:17:20.500Z,30.50
2023-04-20T07:20:26.180Z,30.90
2023-04-20T07:23:05.187Z,30.80
2023-04-20T07:26:17.794Z,31.30
2023-04-20T07:28:58.470Z,30.50
2023-04-20T07:34:30.132Z,29.40
2023-04-20T07:37:10.182Z,30.20
2023-04-20T07:39:43.682Z,33.80
2023-04-20T07:42:15.546Z,33.00
2023-04-20T07:44:59.072Z,31.60
2023-04-20T07:47:51.541Z,33.70
2023-04-20T07:50:26.649Z,34.20
2023-04-20T07:53:03.751Z,36.80
2023-04-20T07:55:37.464Z,33.40
2023-04-20T07:58:06.332Z,33.60
2023-04-20T08:00:38.491Z,31.30
2023-04-20T08:03:23.384Z,32.30
2023-04-20T08:05:57.768Z,31.70
2023-04-20T08:08:47.961Z,29.80
2023-04-20T08:11:19.506Z,31.60
2023-04-20T08:14:11.131Z,31.70
2023-04-20T08:16:55.072Z,32.90
2023-04-20T08:19:26.872Z,32.90
2023-04-20T08:22:01.502Z,36.00
2023-04-20T08:24:41.402Z,33.60
2023-04-20T08:27:32.413Z,30.60
2023-04-20T08:30:08.977Z,34.00
2023-04-20T08:32:45.471Z,32.90
2023-04-20T08:35:41.977Z,32.20
2023-04-20T08:38:32.902Z,31.50
2023-04-20T08:41:09.589Z,30.90
2023-04-20T08:43:50.936Z,32.50
2023-04-20T08:46:34.041Z,34.70
2023-04-20T08:49:24.554Z,35.50
2023-04-20T08:52:10.957Z,36.00
2023-04-20T08:54:56.866Z,35.50
2023-04-20T08:57:35.457Z,34.20
2023-04-20T09:00:16.228Z,32.80
2023-04-20T09:03:02.066Z,32.70
2023-04-20T09:05:53.015Z,33.20
2023-04-20T09:08:34.805Z,31.20
2023-04-20T09:11:39.233Z,31.80
2023-04-20T09:14:24.820Z,34.50
2023-04-20T09:17:14.928Z,33.30
2023-04-20T09:20:06.827Z,34.00
2023-04-20T09:22:47.487Z,32.60
2023-04-20T09:25:32.656Z,34.80
2023-04-20T09:28:24.483Z,35.60
2023-04-20T09:30:56.445Z,34.30
2023-04-20T09:33:41.309Z,31.40
2023-04-20T09:36:26.789Z,30.70
2023-04-20T09:39:16.302Z,30.50
2023-04-20T09:41:51.212Z,31.60
2023-04-20T09:44:30.111Z,34.90
2023-04-20T09:47:06.782Z,34.90
2023-04-20T09:49:53.195Z,34.60
2023-04-20T09:52:30.469Z,35.80
2023-04-20T09:55:14.511Z,35.20
2023-04-20T09:57:50.257Z,35.60
2023-04-20T10:00:27.560Z,34.50
2023-04-20T10:03:05.233Z,34.30
2023-04-20T10:05:39.859Z,34.70
2023-04-20T10:08:20.595Z,33.80
2023-04-20T10:10:55.255Z,32.60
2023-04-20T10:13:34.191Z,32.80
2023-04-20T10:16:17.222Z,30.80
2023-04-20T10:19:07.711Z,32.30
2023-04-20T10:21:48.412Z,30.00
2023-04-20T10:24:31.593Z,32.70
2023-04-20T10:27:20.546Z,32.90
2023-04-20T10:29:54.799Z,31.10
2023-04-20T10:32:28.046Z,30.80
2023-04-20T10:35:06.624Z,28.70
2023-04-20T10:37:47.959Z,28.90
2023-04-20T10:40:16.634Z,28.30
2023-04-20T10:42:46.159Z,27.90
2023-04-20T10:45:16.875Z,28.00
2023-04-20T10:47:45.887Z,27.60
2023-04-20T10:50:18.368Z,28.60
2023-04-20T10:52:46.917Z,28.70
2023-04-20T10:55:20.835Z,28.20
2023-04-20T10:57:52.483Z,26.80
2023-04-20T11:00:26.571Z,24.50
2023-04-20T11:02:59.310Z,26.20
2023-04-20T11:05:28.093Z,26.50
2023-04-20T11:08:03.395Z,24.80
2023-04-20T11:10:42.826Z,27.50
2023-04-20T11:13:25.609Z,27.10
2023-04-20T11:15:54.033Z,25.10
2023-04-20T11:18:25.163Z,26.30
2023-04-20T11:20:55.290Z,24.20
2023-04-20T11:25:57.475Z,24.40
2023-04-20T11:28:30.550Z,24.00
2023-04-20T11:30:59.030Z,25.10
2023-04-20T11:33:31.665Z,24.40
2023-04-20T11:36:01.121Z,26.10
2023-04-20T11:38:34.620Z,25.10
2023-04-20T11:41:08.067Z,24.80
2023-04-20T11:43:36.382Z,24.00
2023-04-20T11:46:17.144Z,25.60
2023-04-20T11:48:49.529Z,22.80
2023-04-20T11:51:17.893Z,23.40
2023-04-20T11:53:46.886Z,24.50
2023-04-20T11:56:15.126Z,23.90
2023-04-20T11:58:43.289Z,24.10
2023-04-20T12:01:11.605Z,23.20
2023-04-20T12:03:40.561Z,23.20
2023-04-20T12:06:09.282Z,23.40
2023-04-20T12:08:37.672Z,21.60
2023-04-20T12:11:06.039Z,21.80
2023-04-20T12:13:34.209Z,21.50
2023-04-20T12:16:02.405Z,19.50
2023-04-20T12:18:30.758Z,18.50
2023-04-20T12:20:59.952Z,19.80
2023-04-20T12:23:28.328Z,18.90
2023-04-20T12:25:56.919Z,20.10
2023-04-20T12:28:25.288Z,17.10
2023-04-20T12:30:53.497Z,20.10
2023-04-20T12:33:21.733Z,18.70
2023-04-20T12:35:49.910Z,16.80
2023-04-20T12:38:18.288Z,15.80
2023-04-20T12:40:46.765Z,15.20
2023-04-20T12:43:15.044Z,15.60
2023-04-20T12:45:43.207Z,16.10
2023-04-20T12:48:11.506Z,14.40
2023-04-20T12:50:39.962Z,14.50
2023-04-20T12:53:08.147Z,16.10
2023-04-20T12:55:36.410Z,16.90
2023-04-20T12:58:04.585Z,17.70
2023-04-20T13:00:33.170Z,18.30
2023-04-20T13:03:02.116Z,17.70
2023-04-20T13:05:30.737Z,17.00
2023-04-20T13:07:59.030Z,17.10
2023-04-20T13:10:27.388Z,16.70
2023-04-20T13:13:04.779Z,16.20
2023-04-20T13:18:06.635Z,14.40
2023-04-20T13:20:35.049Z,13.40
2023-04-20T13:23:04.326Z,14.20
2023-04-20T13:25:33.618Z,13.90
2023-04-20T13:28:03.450Z,13.60
2023-04-20T13:30:32.372Z,13.00
2023-04-20T13:33:00.881Z,13.20
2023-04-20T13:35:29.086Z,13.70
2023-04-20T13:37:57.456Z,14.10
2023-04-20T13:40:26.243Z,13.80
2023-04-20T13:42:54.832Z,13.00
2023-04-20T13:45:23.715Z,12.50
2023-04-20T13:47:54.981Z,11.80
2023-04-20T13:50:23.645Z,11.00
2023-04-20T13:52:54.889Z,11.30
2023-04-20T13:55:24.347Z,11.00
2023-04-20T13:57:53.595Z,11.20
2023-04-20T14:00:23.714Z,10.40
2023-04-20T14:02:52.355Z,9.30
2023-04-20T14:05:20.972Z,9.90
2023-04-20T14:07:49.150Z,10.00
2023-04-20T14:10:17.736Z,10.30
2023-04-20T14:12:46.208Z,8.40
2023-04-20T14:15:14.482Z,9.60
2023-04-20T14:17:42.687Z,8.80
2023-04-20T14:20:11.874Z,8.10
2023-04-20T14:22:40.040Z,7.00
2023-04-20T14:25:08.715Z,7.90
2023-04-20T14:27:36.986Z,6.70
2023-04-20T14:30:06.271Z,7.80
2023-04-20T14:32:35.501Z,7.40
2023-04-20T14:35:05.601Z,8.80
2023-04-20T14:37:34.286Z,7.90
2023-04-20T14:40:02.555Z,7.70
2023-04-20T14:42:30.939Z,7.00
2023-04-20T14:44:59.105Z,6.90
2023-04-20T14:47:27.321Z,6.80
2023-04-20T14:49:55.460Z,6.80
2023-04-20T14:52:23.832Z,6.10
2023-04-20T14:54:51.998Z,5.50
2023-04-20T14:57:20.692Z,5.10
2023-04-20T14:59:48.855Z,5.20
2023-04-20T15:02:18.735Z,4.80
2023-04-20T15:04:47.490Z,4.50
2023-04-20T15:07:15.825Z,4.40
2023-04-20T15:09:43.998Z,4.90
2023-04-20T15:12:12.374Z,5.00
2023-04-20T15:14:40.751Z,4.20
2023-04-20T15:17:09.033Z,4.50
2023-04-20T15:19:37.406Z,4.30
2023-04-20T15:22:05.698Z,4.50
2023-04-20T15:24:33.955Z,4.70
2023-04-20T15:27:03.541Z,4.60
2023-04-20T15:29:33.581Z,4.60
2023-04-20T15:32:01.798Z,4.50
2023-04-20T15:34:30.328Z,4.40
2023-04-20T15:36:58.476Z,4.40
2023-04-20T15:39:26.673Z,4.50
2023-04-20T15:41:54.860Z,4.30
2023-04-20T15:44:23.023Z,4.00
2023-04-20T15:46:51.297Z,3.70
2023-04-20T15:49:20.695Z,4.40
2023-04-20T15:51:48.967Z,3.40
2023-04-20T15:54:17.445Z,3.40
2023-04-20T15:56:46.234Z,4.00
2023-04-20T15:59:14.405Z,4.20
2023-04-20T16:01:42.630Z,3.90
2023-04-20T16:04:11.432Z,3.90
2023-04-20T16:06:41.285Z,3.70
2023-04-20T16:11:37.520Z,3.30
2023-04-20T16:14:05.999Z,3.20
2023-04-20T16:16:34.336Z,4.10
2023-04-20T16:19:02.760Z,3.20
2023-04-20T16:21:30.921Z,3.30
2023-04-20T16:23:59.200Z,3.50
2023-04-20T16:26:27.372Z,3.40
2023-04-20T16:28:55.751Z,4.20
2023-04-20T16:31:24.207Z,3.70
2023-04-20T16:33:52.812Z,3.90
2023-04-20T16:36:21.496Z,3.80
2023-04-20T16:38:49.668Z,3.80
2023-04-20T16:41:18.163Z,4.30
2023-04-20T16:43:47.039Z,3.80
2023-04-20T16:46:16.627Z,3.90
2023-04-20T16:48:45.231Z,4.00
2023-04-20T16:51:13.811Z,4.20
2023-04-20T16:53:43.109Z,4.30
2023-04-20T16:56:12.401Z,3.90
2023-04-20T16:58:40.784Z,4.00
2023-04-20T17:01:09.480Z,4.40
2023-04-20T17:03:38.289Z,4.60
2023-04-20T17:06:09.936Z,3.60
2023-04-20T17:08:38.496Z,4.00
2023-04-20T17:11:07.074Z,4.20
2023-04-20T17:13:35.653Z,4.70
2023-04-20T17:16:04.514Z,4.20
2023-04-20T17:18:34.457Z,4.40
2023-04-20T17:21:02.942Z,3.90
2023-04-20T17:23:34.180Z,3.60
2023-04-20T17:26:03.478Z,3.90
2023-04-20T17:28:32.268Z,3.60
2023-04-20T17:31:01.059Z,4.20
2023-04-20T17:33:29.697Z,4.50
2023-04-20T17:36:01.289Z,4.00
2023-04-20T17:38:30.482Z,4.00
2023-04-20T17:41:01.217Z,4.50
2023-04-20T17:43:29.804Z,4.40
2023-04-20T17:46:00.936Z,4.50
2023-04-20T17:48:29.620Z,4.60
2023-04-20T17:51:00.365Z,4.60
2023-04-20T17:53:31.807Z,4.70
2023-04-20T17:56:03.773Z,4.70
2023-04-20T17:58:32.900Z,5.20
2023-04-20T18:01:01.586Z,4.50
2023-04-20T18:03:33.126Z,4.90
2023-04-20T18:06:04.847Z,4.90
2023-04-20T18:08:34.813Z,4.70
2023-04-20T18:13:41.966Z,4.30
2023-04-20T18:16:13.645Z,4.70
2023-04-20T18:18:49.879Z,4.70
2023-04-20T18:21:18.563Z,4.50
2023-04-20T18:23:49.909Z,4.30
2023-04-20T18:26:25.049Z,4.40
2023-04-20T18:28:56.592Z,4.90
2023-04-20T18:31:27.983Z,4.40
2023-04-20T18:33:59.927Z,4.70
2023-04-20T18:36:34.017Z,4.90
2023-04-20T18:39:12.943Z,5.70
2023-04-20T18:41:54.114Z,5.20
2023-04-20T18:44:28.426Z,5.40
2023-04-20T18:47:00.032Z,6.00
2023-04-20T18:49:35.117Z,9.90
2023-04-20T18:52:06.162Z,11.10
2023-04-20T18:54:57.789Z,9.80
2023-04-20T18:57:32.737Z,9.40
2023-04-20T19:00:11.398Z,11.50
2023-04-20T19:02:46.610Z,8.60
2023-04-20T19:05:44.024Z,6.00
2023-04-20T19:08:18.136Z,20.50
2023-04-20T19:11:12.241Z,17.00
2023-04-20T19:13:48.684Z,34.10
2023-04-20T19:16:25.203Z,31.50
2023-04-20T19:19:03.053Z,25.40
2023-04-20T19:21:40.009Z,22.90
2023-04-20T19:24:20.695Z,23.90
2023-04-20T19:26:55.115Z,20.70
2023-04-20T19:29:35.572Z,20.40
2023-04-20T19:32:21.646Z,18.40
2023-04-20T19:34:57.924Z,18.20
2023-04-20T19:37:34.300Z,15.10
2023-04-20T19:40:16.824Z,13.10
2023-04-20T19:42:50.204Z,12.00
2023-04-20T19:45:23.896Z,14.00
2023-04-20T19:48:00.716Z,14.30
2023-04-20T19:50:42.387Z,14.70
2023-04-20T19:53:14.111Z,14.50
2023-04-20T19:55:48.884Z,13.80
2023-04-20T19:58:20.289Z,11.70
2023-04-20T20:00:54.385Z,9.30
2023-04-20T20:03:35.225Z,7.00
2023-04-20T20:06:09.483Z,5.40
2023-04-20T20:08:50.052Z,5.40
2023-04-20T20:11:25.595Z,6.00
2023-04-20T20:14:09.340Z,5.50
2023-04-20T20:16:57.464Z,6.00
2023-04-20T20:19:31.613Z,5.70
2023-04-20T20:22:05.588Z,5.40
2023-04-20T20:24:46.967Z,4.80
2023-04-20T20:27:28.451Z,5.50
2023-04-20T20:30:14.034Z,5.30
2023-04-20T20:32:57.392Z,5.90
2023-04-20T20:35:31.383Z,5.60
2023-04-20T20:38:10.497Z,7.50
2023-04-20T20:40:47.074Z,8.10
2023-04-20T20:43:30.292Z,7.80
2023-04-20T20:46:07.210Z,7.10
2023-04-20T20:48:48.447Z,7.70
2023-04-20T20:51:28.599Z,9.10
2023-04-20T20:54:06.514Z,8.20
2023-04-20T20:56:46.761Z,7.10
2023-04-20T20:59:18.423Z,6.50
2023-04-20T21:02:12.113Z,6.80
2023-04-20T21:07:50.515Z,6.00
2023-04-20T21:10:32.096Z,6.70
2023-04-20T21:13:08.050Z,6.10
2023-04-20T21:15:45.531Z,5.80
2023-04-20T21:18:25.695Z,5.90
2023-04-20T21:21:06.055Z,6.50
2023-04-20T21:23:48.870Z,6.10
2023-04-20T21:26:35.931Z,7.40
2023-04-20T21:29:15.945Z,7.80
2023-04-20T21:32:09.933Z,6.30
2023-04-20T21:35:04.717Z,6.70
2023-04-20T21:37:44.249Z,6.80
2023-04-20T21:40:41.574Z,6.20
2023-04-20T21:43:26.892Z,6.20
2023-04-20T21:46:27.750Z,7.10
2023-04-20T21:49:08.285Z,6.30
2023-04-20T21:51:49.356Z,6.80
2023-04-20T21:54:53.519Z,6.50
2023-04-20T21:57:33.742Z,6.50
2023-04-20T22:00:15.820Z,6.90
2023-04-20T22:02:59.374Z,6.50
2023-04-20T22:05:43.803Z,7.60
2023-04-20T22:08:52.533Z,7.30
2023-04-20T22:11:49.912Z,7.70
2023-04-20T22:14:38.748Z,7.20
2023-04-20T22:17:22.424Z,7.60
2023-04-20T22:20:16.989Z,9.70
2023-04-20T22:23:10.944Z,9.60
2023-04-20T22:26:18.134Z,8.80
2023-04-20T22:28:55.728Z,8.90
2023-04-20T22:31:52.165Z,8.30
2023-04-20T22:34:41.223Z,7.90
2023-04-20T22:37:38.582Z,8.30
2023-04-20T22:40:30.625Z,8.30
2023-04-20T22:43:11.478Z,7.60
2023-04-20T22:46:22.808Z,8.60
2023-04-20T22:49:27.384Z,8.70
2023-04-20T22:52:15.625Z,7.50
2023-04-20T22:55:08.789Z,7.60
2023-04-20T22:58:00.200Z,7.90
2023-04-20T23:00:48.967Z,8.40
2023-04-20T23:03:33.514Z,8.80
2023-04-20T23:06:38.035Z,8.20
2023-04-20T23:09:42.355Z,7.90
2023-04-20T23:12:48.035Z,8.10
2023-04-20T23:15:40.035Z,8.30
2023-04-20T23:18:34.522Z,8.30
2023-04-20T23:21:35.515Z,8.90
2023-04-20T23:24:47.672Z,9.30
2023-04-20T23:27:58.746Z,9.60
2023-04-20T23:30:53.952Z,8.90
2023-04-20T23:34:11.458Z,9.40
2023-04-20T23:37:02.183Z,9.00
2023-04-20T23:40:23.128Z,8.70
2023-04-20T23:43:10.823Z,8.80
2023-04-20T23:46:10.136Z,9.00
2023-04-20T23:48:56.525Z,9.50
2023-04-20T23:51:47.477Z,9.10
2023-04-20T23:54:51.337Z,9.30
2023-04-20T23:58:00.268Z,8.20
